• Join FlightAware (Why Join?)
  • Login
  • US Flag 
03:46PM EST


 

Airport Tracker/Info


-or-


 

Live Flight TrackerFlight Track Log ✈ N830QS ✈ 30-Jun-2013 ✈ KCRQ - KSTS

Flight Track Log - Related Links

Times and Time Zones

All times are in EDT time to prevent confusion due to time zone crossing. See the N830QS flight status page for this flight to view local times or setup timezone preferences in your user account.

Time Position Orientation Groundspeed Altitude Reporting Facility
EDT Latitude Longitude Course Direction KTS MPH feet Rate Location/Type
05:59PM 33.1333 -117.3500 322° Northwest 204 235 3,300  Level Southern California TRACON
06:00PM 33.1167 -117.4167 253° West 244 281 5,500 2,040 Climbing Southern California TRACON
06:01PM 33.1167 -117.5167 270° West 278 320 7,500 1,920 Climbing Southern California TRACON
06:03PM 33.1128 -117.7164 269° West 307 353 11,900 1,800 Climbing Los Angeles Center
06:04PM 33.5731 -117.7013 322° Northwest  Level Estimated
06:04PM 33.1644 -117.8067 304° West 326 375 13,700  Level Los Angeles Center
06:05PM 33.2467 -117.9011 316° Northwest 339 390 16,300 2,220 Climbing Los Angeles Center
06:06PM 33.3125 -117.9856 313° West 346 398 18,300 1,800 Climbing Los Angeles Center
06:07PM 33.3817 -118.0764 312° West 363 418 20,100 1,740 Climbing Los Angeles Center
06:08PM 33.4556 -118.1669 314° West 375 432 21,900 1,740 Climbing Los Angeles Center
06:09PM 33.5306 -118.2583 315° West 382 440 23,800 1,560 Climbing Los Angeles Center
06:10PM 33.6239 -118.3175 332° Northwest 386 444 25,200 1,380 Climbing Los Angeles Center
06:11PM 33.7469 -118.3725 340° North 407 468 26,700 1,260 Climbing Los Angeles Center
06:12PM 33.8464 -118.4178 339° North 406 467 27,900 1,200 Climbing Los Angeles Center
06:13PM 33.9514 -118.4653 339° North 405 466 29,200 960 Climbing Los Angeles Center
06:14PM 34.0806 -118.5242 339° North 410 472 30,000 360 Climbing Los Angeles Center
06:15PM 34.1956 -118.5786 339° North 441 507 30,000  Level Los Angeles Center
06:16PM 34.3103 -118.6322 339° North 444 511 30,000  Level Los Angeles Center
06:17PM 34.4250 -118.6819 340° North 440 506 30,000  Level Los Angeles Center
06:18PM 34.5147 -118.7244 339° North 436 502 30,000  Level Los Angeles Center
06:19PM 34.6478 -118.7889 338° Northwest 430 495 30,000  Level Los Angeles Center
06:20PM 34.7825 -118.8528 339° North 434 499 30,000  Level Los Angeles Center
06:21PM 34.8756 -118.9417 322° Northwest 431 496 30,000  Level Los Angeles Center
06:22PM 34.9550 -119.0269 319° Northwest 420 483 30,000  Level Los Angeles Center
06:23PM 35.0408 -119.1211 318° Northwest 417 480 30,000  Level Los Angeles Center
06:25PM 35.1467 -119.2356 319° Northwest 425 489 30,000  Level Los Angeles Center
06:26PM 35.2325 -119.3303 318° Northwest 412 474 30,000  Level Los Angeles Center
06:27PM 35.3181 -119.4256 318° Northwest 414 476 30,000  Level Los Angeles Center
06:28PM 35.4036 -119.5208 318° Northwest 417 480 30,000  Level Los Angeles Center
06:29PM 35.4903 -119.6167 318° Northwest 421 484 30,000  Level Los Angeles Center
06:31PM 35.6925 -119.8439 318° Northwest 419 482 30,000  Level Oakland Center
06:32PM 35.7783 -119.9394 318° Northwest 419 482 30,000  Level Oakland Center
06:33PM 35.8628 -120.0364 317° Northwest 418 481 30,000  Level Oakland Center
06:34PM 35.9483 -120.1319 318° Northwest 418 481 30,000  Level Oakland Center
06:35PM 36.0333 -120.2283 317° Northwest 417 480 30,000  Level Oakland Center
06:36PM 36.1350 -120.3456 317° Northwest 417 480 30,000  Level Oakland Center
06:37PM 36.2208 -120.4436 317° Northwest 420 483 30,000  Level Oakland Center
06:38PM 36.3053 -120.5414 317° Northwest 418 481 30,000  Level Oakland Center
06:39PM 36.3892 -120.6425 316° Northwest 421 484 30,000  Level Oakland Center
06:41PM 36.4933 -120.7588 318° Northwest  Level FlightAware Approximate
06:41PM 36.5603 -120.8392 318° Northwest 421 484 30,000  Level Oakland Center
06:42PM 36.6464 -120.9353 318° Northwest 418 481 30,000  Level Oakland Center
06:43PM 36.7308 -121.0364 316° Northwest 419 482 30,000  Level Oakland Center
06:44PM 36.8253 -121.1497 316° Northwest 417 480 30,000  Level Oakland Center
06:45PM 36.9142 -121.2519 317° Northwest 413 475 30,000 -120 Level Oakland Center
06:46PM 36.9994 -121.3508 317° Northwest 417 480 29,800 -660 Descending Oakland Center
06:47PM 37.0869 -121.4553 316° Northwest 430 495 28,700 -1,380 Descending Oakland Center
06:48PM 37.1742 -121.5603 316° Northwest 450 518 27,000 -1,740 Descending Oakland Center
06:49PM 37.2667 -121.6714 316° Northwest 457 526 25,200 -1,860 Descending Oakland Center
06:50PM 37.3597 -121.7825 317° Northwest 446 513 23,200 -1,980 Descending Oakland Center
06:51PM 37.4333 -121.8667 318° Northwest 430 495 21,900 -1,920 Descending Northern Cal TRACON
06:52PM 37.5167 -121.9667 316° Northwest 417 480 20,100 -1,800 Descending Northern Cal TRACON
06:53PM 37.6000 -122.0667 316° Northwest 395 455 18,300 -1,860 Descending Northern Cal TRACON
06:54PM 37.6667 -122.1500 315° West 350 403 16,400 -1,800 Descending Northern Cal TRACON
06:57PM 37.8542 -122.3678 318° Northwest 368 423 12,100 -1,740 Descending Oakland Center
06:58PM 37.9272 -122.4478 319° Northwest 360 414 10,300 -1,740 Descending Oakland Center
06:59PM 38.0033 -122.4936 335° Northwest 317 365 8,600 -1,140 Descending Oakland Center
07:00PM 38.0903 -122.5494 333° Northwest 299 344 8,000 -300 Descending Oakland Center
07:01PM 38.1628 -122.5944 334° Northwest 293 337 8,000 -180 Level Oakland Center
07:02PM 38.2347 -122.6425 332° Northwest 294 338 7,700 -840 Descending Oakland Center
07:03PM 38.2994 -122.6975 326° Northwest 285 328 6,400 -900 Descending Oakland Center
07:04PM 38.3592 -122.7486 326° Northwest 268 308 5,900 -1,140 Descending Oakland Center
07:05PM 38.4194 -122.7972 328° Northwest 261 300 4,100 -1,320 Descending Oakland Center
07:06PM 38.4717 -122.8322 332° Northwest 234 269 3,200 -1,200 Descending Oakland Center
07:07PM 38.5181 -122.8550 339° North 198 228 1,700 -1,080 Descending Oakland Center
07:08PM 38.5431 -122.8342 33° Northeast 161 185 1,100 -600 Descending Oakland Center